createdAt,value
2022-10-28T00:01:06.280Z,7.30
2022-10-28T00:03:35.004Z,13.20
2022-10-28T00:06:04.052Z,11.40
2022-10-28T00:08:32.299Z,10.70
2022-10-28T00:11:05.788Z,15.43
2022-10-28T00:13:34.617Z,12.77
2022-10-28T00:16:10.416Z,11.70
2022-10-28T00:18:39.352Z,14.60
2022-10-28T00:21:09.745Z,12.87
2022-10-28T00:23:38.566Z,16.20
2022-10-28T00:26:08.297Z,14.70
2022-10-28T00:28:36.751Z,16.93
2022-10-28T00:31:08.500Z,14.93
2022-10-28T00:33:36.614Z,11.97
2022-10-28T00:36:17.287Z,9.80
2022-10-28T00:38:47.142Z,15.27
2022-10-28T00:41:18.008Z,13.83
2022-10-28T00:43:47.999Z,15.37
2022-10-28T00:46:26.282Z,16.67
2022-10-28T00:48:59.644Z,12.07
2022-10-28T00:51:30.278Z,7.87
2022-10-28T00:53:59.368Z,13.17
2022-10-28T00:56:31.830Z,11.80
2022-10-28T00:59:04.182Z,10.60
2022-10-28T01:01:33.607Z,12.93
2022-10-28T01:04:01.956Z,7.37
2022-10-28T01:06:31.025Z,12.40
2022-10-28T01:09:00.123Z,9.93
2022-10-28T01:11:46.311Z,11.97
2022-10-28T01:14:24.025Z,9.63
2022-10-28T01:17:09.935Z,12.93
2022-10-28T01:20:08.832Z,12.60
2022-10-28T01:22:43.621Z,11.13
2022-10-28T01:25:36.658Z,9.43
2022-10-28T01:28:28.478Z,12.33
2022-10-28T01:31:25.870Z,9.23
2022-10-28T01:33:59.121Z,13.37
2022-10-28T01:36:37.145Z,13.73
2022-10-28T01:39:26.027Z,12.97
2022-10-28T01:42:00.376Z,12.70
2022-10-28T01:44:33.941Z,11.90
2022-10-28T01:47:10.903Z,9.23
2022-10-28T01:49:42.643Z,8.40
2022-10-28T01:52:14.254Z,13.77
2022-10-28T01:54:46.843Z,9.97
2022-10-28T01:57:17.798Z,14.07
2022-10-28T01:59:48.294Z,8.20
2022-10-28T02:02:19.512Z,11.63
2022-10-28T02:04:47.456Z,9.10
2022-10-28T02:07:16.527Z,13.90
2022-10-28T02:09:59.128Z,10.90
2022-10-28T02:12:29.612Z,16.30
2022-10-28T02:15:26.503Z,9.03
2022-10-28T02:18:12.293Z,14.13
2022-10-28T02:20:50.840Z,12.77
2022-10-28T02:23:23.711Z,13.37
2022-10-28T02:26:00.420Z,14.23
2022-10-28T02:28:39.196Z,12.27
2022-10-28T02:31:12.315Z,18.97
2022-10-28T02:33:43.196Z,20.00
2022-10-28T02:36:15.191Z,14.27
2022-10-28T02:38:47.878Z,13.23
2022-10-28T02:41:21.516Z,15.30
2022-10-28T02:43:54.895Z,20.33
2022-10-28T02:46:26.030Z,13.37
2022-10-28T02:48:58.570Z,14.03
2022-10-28T02:51:31.181Z,16.47
2022-10-28T02:54:04.176Z,15.07
2022-10-28T02:56:38.064Z,9.53
2022-10-28T02:59:11.077Z,12.67
2022-10-28T03:01:39.360Z,9.97
2022-10-28T03:04:08.940Z,14.17
2022-10-28T03:06:37.060Z,11.10
2022-10-28T03:09:05.061Z,11.27
2022-10-28T03:11:33.072Z,13.27
2022-10-28T03:14:01.065Z,14.07
2022-10-28T03:16:28.930Z,14.30
2022-10-28T03:18:57.104Z,10.47
2022-10-28T03:21:26.683Z,12.03
2022-10-28T03:23:54.672Z,10.27
2022-10-28T03:26:22.724Z,11.43
2022-10-28T03:28:50.887Z,16.93
2022-10-28T03:31:18.995Z,12.00
2022-10-28T03:33:46.967Z,18.67
2022-10-28T03:36:14.905Z,14.30
2022-10-28T03:38:44.193Z,21.93
2022-10-28T03:41:12.101Z,13.77
2022-10-28T03:43:40.118Z,17.63
2022-10-28T03:46:08.143Z,16.73
2022-10-28T03:48:36.382Z,12.07
2022-10-28T03:51:04.516Z,13.53
2022-10-28T03:53:32.462Z,13.17
2022-10-28T03:56:02.935Z,10.93
2022-10-28T03:58:31.513Z,15.30
2022-10-28T04:00:59.675Z,11.57
2022-10-28T04:03:27.843Z,12.47
2022-10-28T04:05:55.847Z,15.93
2022-10-28T04:08:23.755Z,13.07
2022-10-28T04:10:51.798Z,11.10
2022-10-28T04:13:21.091Z,16.40
2022-10-28T04:15:48.978Z,20.33
2022-10-28T04:18:16.921Z,13.47
2022-10-28T04:20:46.550Z,16.17
2022-10-28T04:23:16.750Z,15.70
2022-10-28T04:25:44.927Z,11.77
2022-10-28T04:28:13.049Z,13.70
2022-10-28T04:30:42.319Z,12.43
2022-10-28T04:33:13.320Z,16.53
2022-10-28T04:35:43.111Z,11.70
2022-10-28T04:38:11.459Z,15.10
2022-10-28T04:40:39.459Z,13.77
2022-10-28T04:43:09.721Z,13.70
2022-10-28T04:45:39.073Z,10.17
2022-10-28T04:48:09.944Z,9.97
2022-10-28T04:50:37.817Z,15.90
2022-10-28T04:53:11.751Z,13.73
2022-10-28T04:55:39.837Z,12.90
2022-10-28T04:58:07.763Z,10.17
2022-10-28T05:00:35.926Z,9.43
2022-10-28T05:03:04.887Z,19.07
2022-10-28T05:05:34.308Z,11.73
2022-10-28T05:08:02.497Z,16.17
2022-10-28T05:10:30.723Z,9.87
2022-10-28T05:12:58.679Z,8.77
2022-10-28T05:15:27.140Z,18.00
2022-10-28T05:17:55.767Z,11.87
2022-10-28T05:20:24.311Z,14.17
2022-10-28T05:22:55.831Z,8.97
2022-10-28T05:25:24.767Z,12.80
2022-10-28T05:27:53.892Z,11.03
2022-10-28T05:30:21.859Z,11.13
2022-10-28T05:32:52.889Z,13.77
2022-10-28T05:35:23.157Z,10.60
2022-10-28T05:37:53.076Z,13.13
2022-10-28T05:40:20.981Z,15.27
2022-10-28T05:42:48.843Z,14.17
2022-10-28T05:45:17.165Z,14.23
2022-10-28T05:47:46.398Z,16.50
2022-10-28T05:50:15.830Z,11.50
2022-10-28T05:52:46.787Z,13.23
2022-10-28T05:55:16.611Z,11.60
2022-10-28T05:57:44.522Z,14.13
2022-10-28T06:00:14.568Z,10.60
2022-10-28T06:02:43.078Z,10.47
2022-10-28T06:05:11.850Z,15.20
2022-10-28T06:07:40.970Z,14.47
2022-10-28T06:10:11.506Z,13.97
2022-10-28T06:12:39.322Z,12.77
2022-10-28T06:15:08.364Z,12.03
2022-10-28T06:17:36.343Z,12.63
2022-10-28T06:20:05.466Z,20.67
2022-10-28T06:22:33.449Z,21.83
2022-10-28T06:25:01.396Z,11.23
2022-10-28T06:27:29.999Z,20.33
2022-10-28T06:29:59.252Z,14.27
2022-10-28T06:32:27.177Z,11.07
2022-10-28T06:34:55.109Z,16.67
2022-10-28T06:37:23.077Z,13.40
2022-10-28T06:39:52.087Z,13.67
2022-10-28T06:42:20.289Z,17.07
2022-10-28T06:44:49.285Z,14.97
2022-10-28T06:47:20.013Z,22.10
2022-10-28T06:49:48.049Z,17.03
2022-10-28T06:52:16.061Z,18.73
2022-10-28T06:54:44.498Z,14.60
2022-10-28T06:57:12.552Z,17.30
2022-10-28T06:59:40.492Z,14.10
2022-10-28T07:02:10.446Z,10.60
2022-10-28T07:04:39.874Z,15.60
2022-10-28T07:07:07.796Z,18.63
2022-10-28T07:09:39.457Z,12.33
2022-10-28T07:12:08.624Z,14.27
2022-10-28T07:14:36.673Z,14.53
2022-10-28T07:17:04.879Z,14.47
2022-10-28T07:19:32.918Z,9.77
2022-10-28T07:22:02.136Z,11.77
2022-10-28T07:24:30.086Z,7.83
2022-10-28T07:26:58.061Z,10.20
2022-10-28T07:29:26.009Z,15.47
2022-10-28T07:31:55.596Z,9.40
2022-10-28T07:34:26.956Z,8.57
2022-10-28T07:36:56.575Z,8.90
2022-10-28T07:39:26.081Z,15.27
2022-10-28T07:41:54.103Z,15.73
2022-10-28T07:44:22.139Z,12.43
2022-10-28T07:46:53.056Z,10.23
2022-10-28T07:49:23.787Z,19.03
2022-10-28T07:51:52.232Z,8.87
2022-10-28T07:54:20.278Z,20.87
2022-10-28T07:56:49.597Z,10.70
2022-10-28T07:59:17.606Z,12.10
2022-10-28T08:01:45.658Z,8.93
2022-10-28T08:04:13.686Z,12.77
2022-10-28T08:06:41.683Z,9.90
2022-10-28T08:09:09.842Z,9.63
2022-10-28T08:11:37.757Z,7.17
2022-10-28T08:14:06.992Z,8.10
2022-10-28T08:16:34.955Z,14.27
2022-10-28T08:19:07.517Z,8.63
2022-10-28T08:21:35.913Z,12.53
2022-10-28T08:24:03.772Z,20.27
2022-10-28T08:26:31.786Z,14.00
2022-10-28T08:29:01.518Z,5.30
2022-10-28T08:31:33.072Z,11.73
2022-10-28T08:34:01.037Z,15.20
2022-10-28T08:36:28.896Z,11.47
2022-10-28T08:38:59.208Z,13.47
2022-10-28T08:41:36.037Z,7.67
2022-10-28T08:44:31.960Z,10.63
2022-10-28T08:47:14.705Z,12.00
2022-10-28T08:49:47.049Z,18.30
2022-10-28T08:52:29.556Z,15.73
2022-10-28T08:55:03.517Z,5.97
2022-10-28T08:57:40.388Z,12.23
2022-10-28T09:00:14.679Z,20.80
2022-10-28T09:02:54.803Z,16.77
2022-10-28T09:05:24.771Z,9.67
2022-10-28T09:07:53.964Z,42.00
2022-10-28T09:10:37.221Z,49.03
2022-10-28T09:13:12.408Z,27.00
2022-10-28T09:15:48.010Z,17.80
2022-10-28T09:18:20.454Z,14.87
2022-10-28T09:20:54.103Z,8.43
2022-10-28T09:23:24.903Z,10.77
2022-10-28T09:26:06.866Z,14.77
2022-10-28T09:28:59.101Z,15.10
2022-10-28T09:31:35.698Z,7.67
2022-10-28T09:34:17.679Z,12.10
2022-10-28T09:36:49.913Z,9.23
2022-10-28T09:39:25.328Z,11.73
2022-10-28T09:41:58.453Z,9.60
2022-10-28T09:44:34.298Z,9.97
2022-10-28T09:47:05.619Z,19.67
2022-10-28T09:49:39.937Z,15.30
2022-10-28T09:52:16.233Z,10.93
2022-10-28T09:54:48.236Z,8.73
2022-10-28T09:57:17.397Z,13.83
2022-10-28T09:59:45.882Z,7.43
2022-10-28T10:02:27.558Z,6.37
2022-10-28T10:04:58.416Z,11.80
2022-10-28T10:07:33.502Z,11.00
2022-10-28T10:10:06.868Z,10.03
2022-10-28T10:12:35.300Z,8.23
2022-10-28T10:15:08.134Z,6.33
2022-10-28T10:17:41.543Z,10.87
2022-10-28T10:20:13.585Z,13.47
2022-10-28T10:22:43.211Z,16.50
2022-10-28T10:25:31.106Z,9.47
2022-10-28T10:28:02.759Z,8.10
2022-10-28T10:30:34.327Z,8.43
2022-10-28T10:33:03.870Z,7.93
2022-10-28T10:35:35.439Z,9.00
2022-10-28T10:38:06.606Z,8.03
2022-10-28T10:40:38.183Z,11.93
2022-10-28T10:43:23.133Z,11.60
2022-10-28T10:46:01.349Z,6.60
2022-10-28T10:48:30.108Z,5.20
2022-10-28T10:51:05.385Z,8.67
2022-10-28T10:53:34.382Z,9.70
2022-10-28T10:56:04.642Z,11.10
2022-10-28T10:58:35.347Z,17.53
2022-10-28T11:01:07.316Z,9.03
2022-10-28T11:03:38.827Z,12.03
2022-10-28T11:06:23.636Z,10.47
2022-10-28T11:08:57.483Z,8.30
2022-10-28T11:11:35.252Z,12.90
2022-10-28T11:14:05.435Z,12.53
2022-10-28T11:16:33.277Z,7.47
2022-10-28T11:19:16.979Z,7.03
2022-10-28T11:21:59.264Z,10.13
2022-10-28T11:24:40.722Z,11.23
2022-10-28T11:27:23.057Z,13.07
2022-10-28T11:29:51.348Z,7.17
2022-10-28T11:32:29.111Z,13.87
2022-10-28T11:35:26.745Z,11.07
2022-10-28T11:38:08.287Z,12.87
2022-10-28T11:40:59.100Z,8.43
2022-10-28T11:43:38.444Z,11.57
2022-10-28T11:46:14.366Z,16.50
2022-10-28T11:49:00.079Z,13.40
2022-10-28T11:51:39.102Z,12.67
2022-10-28T11:54:24.922Z,11.97
2022-10-28T11:57:00.426Z,4.97
2022-10-28T11:59:51.677Z,9.73
2022-10-28T12:02:39.624Z,8.67
2022-10-28T12:05:17.612Z,12.87
2022-10-28T12:08:03.774Z,7.43
2022-10-28T12:10:44.098Z,10.17
2022-10-28T12:13:21.152Z,9.60
2022-10-28T12:15:57.512Z,12.43
2022-10-28T12:18:33.143Z,7.77
2022-10-28T12:21:08.423Z,9.60
2022-10-28T12:23:39.069Z,12.17
2022-10-28T12:26:13.652Z,10.87
2022-10-28T12:28:46.662Z,7.90
2022-10-28T12:31:23.211Z,7.93
2022-10-28T12:33:54.216Z,9.53
2022-10-28T12:36:32.000Z,13.00
2022-10-28T12:39:03.588Z,10.73
2022-10-28T12:41:47.737Z,8.93
2022-10-28T12:44:19.983Z,14.60
2022-10-28T12:46:58.225Z,8.70
2022-10-28T12:49:36.794Z,18.30
2022-10-28T12:52:15.615Z,8.23
2022-10-28T12:54:53.772Z,9.60
2022-10-28T12:57:26.574Z,17.07
2022-10-28T13:00:00.033Z,10.63
2022-10-28T13:02:34.524Z,11.50
2022-10-28T13:05:05.532Z,10.43
2022-10-28T13:07:56.185Z,7.03
2022-10-28T13:10:36.992Z,12.87
2022-10-28T13:13:28.751Z,18.57
2022-10-28T13:16:11.579Z,9.23
2022-10-28T13:19:09.181Z,6.33
2022-10-28T13:22:09.897Z,13.27
2022-10-28T13:24:48.349Z,12.47
2022-10-28T13:27:17.255Z,11.23
2022-10-28T13:29:52.683Z,8.60
2022-10-28T13:32:38.580Z,9.63
2022-10-28T13:35:17.171Z,14.40
2022-10-28T13:37:48.590Z,16.63
2022-10-28T13:40:44.614Z,10.67
2022-10-28T13:43:20.013Z,16.90
2022-10-28T13:45:54.350Z,17.23
2022-10-28T13:48:49.252Z,10.10
2022-10-28T13:51:34.349Z,11.50
2022-10-28T13:54:02.645Z,10.27
2022-10-28T13:56:48.441Z,14.60
2022-10-28T13:59:28.214Z,7.60
2022-10-28T14:02:34.999Z,11.97
2022-10-28T14:04:58.090Z,14.67
2022-10-28T14:07:30.191Z,10.63
2022-10-28T14:10:17.629Z,12.30
2022-10-28T14:12:51.392Z,12.00
2022-10-28T14:15:24.186Z,11.07
2022-10-28T14:18:05.135Z,10.10
2022-10-28T14:21:00.808Z,17.67
2022-10-28T14:24:06.773Z,9.77
2022-10-28T14:27:29.961Z,18.17
2022-10-28T14:30:22.546Z,15.00
2022-10-28T14:33:22.164Z,13.83
2022-10-28T14:36:01.076Z,18.23
2022-10-28T14:38:56.958Z,10.43
2022-10-28T14:41:46.941Z,7.53
2022-10-28T14:44:33.705Z,15.10
2022-10-28T14:47:24.146Z,15.07
2022-10-28T14:50:02.069Z,11.60
2022-10-28T14:52:31.813Z,10.07
2022-10-28T14:55:02.801Z,18.10
2022-10-28T14:57:34.043Z,10.27
2022-10-28T15:00:06.148Z,9.13
2022-10-28T15:02:37.016Z,8.17
2022-10-28T15:05:16.554Z,16.60
2022-10-28T15:07:45.291Z,12.50
2022-10-28T15:10:18.918Z,11.60
2022-10-28T15:12:49.601Z,13.10
2022-10-28T15:15:19.717Z,11.27
2022-10-28T15:17:48.563Z,12.47
2022-10-28T15:20:24.340Z,10.40
2022-10-28T15:22:52.572Z,16.43
2022-10-28T15:25:22.530Z,12.00
2022-10-28T15:27:53.411Z,14.53
2022-10-28T15:30:23.855Z,10.53
2022-10-28T15:32:53.125Z,15.77
2022-10-28T15:35:41.487Z,16.10
2022-10-28T15:38:39.206Z,23.60
2022-10-28T15:41:39.401Z,16.30
2022-10-28T15:44:07.481Z,11.20
2022-10-28T15:46:35.715Z,17.33
2022-10-28T15:49:03.895Z,19.53
2022-10-28T15:51:33.321Z,18.70
2022-10-28T15:54:12.238Z,16.23
2022-10-28T15:56:55.797Z,13.40
2022-10-28T15:59:26.235Z,21.93
2022-10-28T16:01:56.477Z,15.33
2022-10-28T16:04:44.974Z,16.90
2022-10-28T16:07:14.702Z,18.37
2022-10-28T16:09:46.813Z,12.37
2022-10-28T16:12:17.139Z,13.13
2022-10-28T16:14:48.702Z,15.37
2022-10-28T16:17:19.149Z,12.67
2022-10-28T16:19:53.709Z,10.83
2022-10-28T16:22:26.943Z,8.13
2022-10-28T16:24:55.997Z,11.33
2022-10-28T16:27:26.633Z,15.50
2022-10-28T16:29:54.985Z,10.50
2022-10-28T16:32:27.378Z,11.63
2022-10-28T16:34:56.625Z,11.67
2022-10-28T16:37:27.726Z,12.67
2022-10-28T16:39:56.120Z,11.87
2022-10-28T16:42:25.225Z,12.23
2022-10-28T16:44:53.741Z,12.20
2022-10-28T16:47:25.605Z,14.90
2022-10-28T16:49:57.510Z,19.80
2022-10-28T16:52:29.944Z,17.37
2022-10-28T16:54:58.778Z,17.40
2022-10-28T16:57:27.040Z,18.23
2022-10-28T16:59:55.278Z,16.70
2022-10-28T17:02:27.505Z,16.50
2022-10-28T17:04:55.613Z,32.07
2022-10-28T17:07:23.819Z,23.30
2022-10-28T17:09:53.510Z,18.73
2022-10-28T17:12:25.920Z,21.97
2022-10-28T17:14:54.347Z,29.27
2022-10-28T17:17:22.443Z,20.03
2022-10-28T17:19:51.113Z,26.03
2022-10-28T17:22:19.027Z,25.97
2022-10-28T17:24:47.163Z,26.20
2022-10-28T17:27:16.984Z,28.53
2022-10-28T17:29:45.112Z,35.00
2022-10-28T17:32:14.012Z,32.57
2022-10-28T17:34:41.949Z,23.03
2022-10-28T17:37:10.449Z,31.10
2022-10-28T17:39:38.829Z,29.53
2022-10-28T17:42:06.836Z,22.13
2022-10-28T17:44:36.586Z,31.13
2022-10-28T17:47:04.634Z,22.03
2022-10-28T17:49:34.330Z,21.50
2022-10-28T17:52:02.299Z,26.40
2022-10-28T17:54:30.245Z,23.93
2022-10-28T17:56:58.283Z,25.43
2022-10-28T17:59:26.309Z,24.67
2022-10-28T18:01:55.726Z,19.27
2022-10-28T18:04:26.448Z,22.43
2022-10-28T18:06:55.299Z,17.13
2022-10-28T18:09:23.704Z,17.33
2022-10-28T18:11:52.115Z,19.00
2022-10-28T18:14:21.115Z,69.70
2022-10-28T18:16:51.112Z,96.83
2022-10-28T18:19:20.455Z,68.20
2022-10-28T18:21:48.907Z,54.60
2022-10-28T18:24:18.536Z,33.73
2022-10-28T18:26:48.063Z,29.57
2022-10-28T18:29:16.003Z,27.13
2022-10-28T18:31:44.392Z,26.97
2022-10-28T18:34:12.841Z,22.53
2022-10-28T18:36:42.428Z,18.70
2022-10-28T18:39:10.670Z,20.87
2022-10-28T18:41:43.077Z,20.80
2022-10-28T18:44:13.029Z,19.97
2022-10-28T18:46:41.538Z,16.93
2022-10-28T18:49:09.521Z,19.47
2022-10-28T18:51:37.854Z,13.30
2022-10-28T18:54:08.208Z,19.30
2022-10-28T18:56:36.284Z,19.30
2022-10-28T18:59:06.952Z,17.20
2022-10-28T19:01:36.255Z,16.20
2022-10-28T19:04:05.745Z,17.53
2022-10-28T19:06:35.191Z,19.87
2022-10-28T19:09:05.216Z,15.77
2022-10-28T19:11:35.542Z,21.53
2022-10-28T19:14:04.927Z,16.07
2022-10-28T19:16:35.068Z,32.20
2022-10-28T19:19:05.152Z,30.17
2022-10-28T19:21:33.854Z,28.53
2022-10-28T19:24:02.183Z,21.97
2022-10-28T19:26:31.871Z,24.33
2022-10-28T19:29:01.591Z,21.37
2022-10-28T19:31:30.775Z,23.60
2022-10-28T19:33:58.917Z,27.80
2022-10-28T19:36:28.366Z,23.60
2022-10-28T19:38:57.743Z,20.83
2022-10-28T19:41:28.194Z,19.80
2022-10-28T19:43:58.568Z,19.63
2022-10-28T19:46:29.855Z,22.27
2022-10-28T19:48:59.527Z,22.63
2022-10-28T19:51:29.684Z,17.20
2022-10-28T19:53:59.914Z,20.77
2022-10-28T19:56:29.159Z,50.93
2022-10-28T19:58:59.314Z,29.13
2022-10-28T20:01:30.673Z,24.00
2022-10-28T20:03:59.554Z,34.80
2022-10-28T20:06:31.167Z,27.90
2022-10-28T20:08:59.303Z,21.13
2022-10-28T20:11:29.338Z,21.80
2022-10-28T20:14:00.757Z,21.80
2022-10-28T20:16:30.323Z,14.07
2022-10-28T20:18:59.317Z,23.17
2022-10-28T20:21:29.352Z,24.50
2022-10-28T20:23:58.588Z,14.40
2022-10-28T20:26:28.437Z,22.00
2022-10-28T20:28:57.278Z,20.50
2022-10-28T20:31:26.999Z,18.47
2022-10-28T20:33:58.691Z,18.73
2022-10-28T20:36:28.135Z,22.90
2022-10-28T20:38:57.267Z,16.87
2022-10-28T20:41:26.312Z,16.70
2022-10-28T20:43:55.301Z,21.17
2022-10-28T20:46:24.355Z,25.37
2022-10-28T20:48:54.068Z,21.43
2022-10-28T20:51:24.845Z,17.23
2022-10-28T20:53:53.267Z,29.50
2022-10-28T20:56:23.884Z,20.77
2022-10-28T20:58:52.803Z,30.37
2022-10-28T21:01:22.532Z,21.33
2022-10-28T21:03:53.862Z,21.07
2022-10-28T21:06:23.792Z,18.70
2022-10-28T21:08:51.921Z,23.10
2022-10-28T21:11:20.262Z,22.87
2022-10-28T21:13:52.841Z,23.43
2022-10-28T21:16:21.360Z,20.97
2022-10-28T21:18:49.954Z,21.97
2022-10-28T21:21:18.932Z,24.67
2022-10-28T21:23:48.445Z,21.93
2022-10-28T21:26:16.659Z,28.43
2022-10-28T21:28:45.347Z,23.40
2022-10-28T21:31:14.839Z,28.17
2022-10-28T21:33:43.618Z,23.57
2022-10-28T21:36:13.410Z,19.60
2022-10-28T21:38:41.569Z,26.37
2022-10-28T21:41:13.688Z,29.70
2022-10-28T21:43:43.603Z,18.47
2022-10-28T21:46:11.874Z,25.60
2022-10-28T21:48:40.001Z,21.87
2022-10-28T21:51:13.465Z,20.13
2022-10-28T21:53:42.937Z,20.73
2022-10-28T21:56:17.681Z,18.73
2022-10-28T21:58:47.483Z,18.10
2022-10-28T22:01:18.570Z,17.53
2022-10-28T22:03:46.688Z,22.53
2022-10-28T22:06:15.334Z,17.83
2022-10-28T22:08:43.543Z,18.20
2022-10-28T22:11:14.837Z,20.20
2022-10-28T22:13:43.136Z,21.03
2022-10-28T22:16:12.862Z,32.70
2022-10-28T22:18:41.358Z,35.73
2022-10-28T22:21:11.805Z,28.67
2022-10-28T22:23:40.413Z,23.47
2022-10-28T22:26:10.381Z,24.03
2022-10-28T22:28:39.855Z,27.90
2022-10-28T22:31:10.224Z,23.00
2022-10-28T22:33:38.304Z,17.23
2022-10-28T22:36:09.026Z,19.00
2022-10-28T22:38:37.113Z,17.70
2022-10-28T22:41:06.408Z,13.67
2022-10-28T22:43:34.997Z,17.07
2022-10-28T22:46:04.930Z,17.77
2022-10-28T22:48:33.861Z,19.30
2022-10-28T22:51:06.678Z,24.47
2022-10-28T22:53:34.683Z,29.90
2022-10-28T22:56:02.728Z,25.80
2022-10-28T22:58:30.618Z,22.00
2022-10-28T23:01:08.492Z,23.97
2022-10-28T23:03:37.976Z,19.17
2022-10-28T23:06:06.703Z,22.83
2022-10-28T23:08:34.760Z,23.00
2022-10-28T23:11:02.664Z,30.83
2022-10-28T23:13:30.737Z,26.77
2022-10-28T23:16:03.066Z,22.10
2022-10-28T23:18:32.487Z,29.47
2022-10-28T23:21:05.017Z,31.50
2022-10-28T23:23:32.987Z,18.43
2022-10-28T23:26:00.897Z,24.27
2022-10-28T23:28:28.852Z,22.60
2022-10-28T23:31:00.701Z,28.00
2022-10-28T23:33:29.241Z,24.87
2022-10-28T23:35:59.570Z,21.67
2022-10-28T23:38:27.530Z,19.73
2022-10-28T23:40:57.215Z,19.97
2022-10-28T23:43:25.227Z,13.07
2022-10-28T23:45:54.400Z,24.80
2022-10-28T23:48:22.731Z,17.67
2022-10-28T23:50:51.015Z,16.53
2022-10-28T23:53:20.686Z,16.43
2022-10-28T23:55:50.366Z,22.37
2022-10-28T23:58:19.941Z,23.07
